Time;durP1;ratioP1;P1;durP2;ratioP2;P2;SDS_P1;SDS_P2;PMS_P1;PMS_P2;Temp;Humidity;BMP_temperature;BMP_pressure;BME280_temperature;BME280_humidity;BME280_pressure;Samples;Min_cycle;Max_cycle;Signal;HPM_P1;HPM_P2
2022/06/06 00:01:48;;;;;;;17.30;16.00;;;21.20;1.00;;;;;;4969417;28;20536;-55
2022/06/06 00:04:14;;;;;;;17.27;15.97;;;21.10;99.90;;;;;;4970139;28;20455;-57
2022/06/06 00:06:41;;;;;;;17.33;16.13;;;21.00;99.90;;;;;;4963489;28;20442;-57
2022/06/06 00:09:08;;;;;;;17.23;16.03;;;20.90;1.00;;;;;;4970557;28;20519;-57
2022/06/06 00:11:35;;;;;;;16.73;15.53;;;21.00;1.00;;;;;;4967286;28;20970;-56
2022/06/06 00:14:02;;;;;;;16.60;15.40;;;20.90;99.90;;;;;;4975104;28;20447;-58
2022/06/06 00:16:27;;;;;;;15.73;14.57;;;20.90;99.90;;;;;;4970194;28;20920;-56
2022/06/06 00:18:53;;;;;;;16.53;15.43;;;20.90;1.00;;;;;;4968456;28;20436;-56
2022/06/06 00:21:19;;;;;;;16.40;15.30;;;20.90;99.90;;;;;;4970007;28;20202;-58
2022/06/06 00:23:44;;;;;;;18.00;16.50;;;20.90;1.00;;;;;;4965228;28;20189;-56
2022/06/06 00:26:13;;;;;;;16.40;15.30;;;20.90;1.00;;;;;;4970397;28;20432;-55
2022/06/06 00:28:40;;;;;;;15.83;14.70;;;20.90;95.80;;;;;;4962875;28;20186;-54
2022/06/06 00:36:37;;;;;;;16.40;15.20;;;20.70;99.90;;;;;;4969689;28;20452;-55
2022/06/06 00:39:05;;;;;;;17.03;15.80;;;20.70;99.90;;;;;;4974898;28;20791;-57
2022/06/06 00:41:36;;;;;;;17.10;15.83;;;20.70;99.90;;;;;;4965422;28;20477;-56
2022/06/06 00:44:10;;;;;;;17.93;16.47;;;20.60;99.90;;;;;;4969197;28;20426;-54
2022/06/06 00:46:47;;;;;;;17.83;16.53;;;20.60;99.90;;;;;;4988428;28;20523;-58
2022/06/06 00:49:17;;;;;;;17.27;15.87;;;20.60;99.90;;;;;;4957057;28;20475;-57
2022/06/06 00:51:44;;;;;;;16.73;15.53;;;20.60;99.90;;;;;;4970265;28;20926;-57
2022/06/06 00:54:09;;;;;;;18.30;16.80;;;20.60;99.90;;;;;;4968828;28;20463;-57
2022/06/06 00:56:39;;;;;;;17.50;16.00;;;20.60;99.90;;;;;;4970293;28;20475;-57
2022/06/06 00:59:12;;;;;;;17.00;15.80;;;20.60;99.90;;;;;;4969402;28;20200;-55
2022/06/06 01:01:39;;;;;;;17.03;15.80;;;20.70;99.90;;;;;;4969990;28;20420;-57
2022/06/06 01:04:05;;;;;;;15.80;14.70;;;20.80;99.90;;;;;;4970091;28;20428;-57
2022/06/06 01:06:34;;;;;;;16.67;15.47;;;20.80;99.90;;;;;;4966459;28;20506;-57
2022/06/06 01:09:01;;;;;;;15.50;14.40;;;20.80;99.90;;;;;;4970558;28;20491;-58
2022/06/06 01:11:27;;;;;;;15.93;14.73;;;20.90;99.90;;;;;;4961078;28;20449;-55
2022/06/06 01:13:54;;;;;;;15.20;14.10;;;20.90;99.90;;;;;;4969941;28;20799;-58
2022/06/06 01:16:37;;;;;;;14.20;13.10;;;20.90;99.90;;;;;;4972436;28;20551;-58
2022/06/06 01:19:12;;;;;;;12.27;11.37;;;20.80;1.00;;;;;;4967776;28;20478;-55
2022/06/06 01:22:05;;;;;;;12.13;11.13;;;21.10;1.00;;;;;;4968689;28;20429;-54
2022/06/06 01:24:48;;;;;;;11.90;11.00;;;21.10;1.00;;;;;;4971702;28;20448;-55
2022/06/06 01:27:33;;;;;;;13.50;12.40;;;21.10;1.00;;;;;;4970221;28;20450;-56
2022/06/06 01:30:08;;;;;;;14.00;12.90;;;21.30;1.00;;;;;;4972189;28;20465;-57
2022/06/06 01:32:39;;;;;;;12.20;11.30;;;21.20;1.00;;;;;;4959066;28;20447;-57
2022/06/06 01:35:06;;;;;;;12.03;11.13;;;21.20;1.00;;;;;;4960685;28;20422;-56
2022/06/06 01:37:38;;;;;;;11.40;10.50;;;21.20;1.00;;;;;;4971686;28;20777;-58
2022/06/06 01:40:12;;;;;;;8.93;8.33;;;21.30;1.00;;;;;;4973202;28;20513;-54
2022/06/06 01:43:10;;;;;;;8.50;7.70;;;21.30;1.00;;;;;;4967700;28;20546;-57
2022/06/06 01:46:04;;;;;;;8.13;7.43;;;21.30;1.00;;;;;;4963659;28;20484;-53
2022/06/06 01:48:37;;;;;;;7.60;7.00;;;21.40;1.00;;;;;;4966675;28;20931;-58
2022/06/06 01:51:20;;;;;;;6.80;6.20;;;21.30;1.00;;;;;;4988075;28;20441;-58
2022/06/06 01:53:46;;;;;;;6.77;6.27;;;21.40;1.00;;;;;;4972580;28;20468;-56
2022/06/06 01:56:16;;;;;;;7.20;6.70;;;21.30;1.00;;;;;;4974723;28;20772;-57
2022/06/06 01:58:42;;;;;;;7.00;6.40;;;21.40;1.00;;;;;;4971650;28;20234;-55
2022/06/06 02:01:07;;;;;;;7.10;6.40;;;21.40;1.00;;;;;;4977154;28;20481;-55
2022/06/06 02:03:34;;;;;;;6.47;5.87;;;21.30;1.00;;;;;;4973035;28;20189;-55
2022/06/06 02:06:02;;;;;;;6.13;5.73;;;21.30;1.00;;;;;;4972943;28;20207;-57
2022/06/06 02:08:28;;;;;;;6.80;6.10;;;21.30;1.00;;;;;;4969698;28;20425;-55
2022/06/06 02:10:54;;;;;;;6.10;5.70;;;21.30;1.00;;;;;;4963296;28;20511;-56
2022/06/06 02:13:20;;;;;;;5.70;5.30;;;21.20;1.00;;;;;;4971926;28;20441;-57
2022/06/06 02:15:46;;;;;;;5.87;5.40;;;21.20;1.00;;;;;;4960792;28;20447;-57
2022/06/06 02:18:12;;;;;;;5.50;5.10;;;21.20;1.00;;;;;;4972390;28;20435;-53
2022/06/06 02:20:38;;;;;;;6.50;6.00;;;21.10;1.00;;;;;;4971125;28;20186;-55
2022/06/06 02:23:04;;;;;;;5.60;5.20;;;21.00;1.00;;;;;;4972242;28;20972;-59
2022/06/06 02:25:31;;;;;;;5.70;5.30;;;20.80;1.00;;;;;;4958582;28;20556;-58
2022/06/06 02:27:57;;;;;;;5.50;5.10;;;20.50;1.00;;;;;;4971347;28;20491;-58
2022/06/06 02:30:29;;;;;;;5.80;5.40;;;20.20;1.00;;;;;;4964594;28;20472;-55
2022/06/06 02:32:54;;;;;;;5.40;5.00;;;19.90;7.80;;;;;;4959237;28;20460;-52
2022/06/06 02:35:23;;;;;;;5.60;5.20;;;19.70;27.90;;;;;;4962587;28;20506;-57
2022/06/06 02:37:50;;;;;;;5.80;5.30;;;19.50;42.90;;;;;;4972528;28;20212;-58
2022/06/06 02:40:19;;;;;;;5.37;4.97;;;19.40;52.50;;;;;;4970619;28;20436;-55
2022/06/06 02:42:45;;;;;;;5.83;5.33;;;19.20;68.50;;;;;;4972009;28;20428;-51
2022/06/06 02:45:18;;;;;;;5.53;4.93;;;19.00;88.00;;;;;;4971308;28;20440;-57
2022/06/06 02:47:51;;;;;;;5.87;5.27;;;18.90;99.90;;;;;;4971928;28;20197;-57
2022/06/06 02:50:20;;;;;;;5.70;5.30;;;18.80;99.90;;;;;;4971217;28;20468;-55
2022/06/06 02:52:46;;;;;;;5.77;5.30;;;18.70;99.90;;;;;;4971186;28;20457;-57
2022/06/06 02:55:13;;;;;;;6.33;5.83;;;18.70;99.90;;;;;;4971513;28;20552;-56
2022/06/06 02:57:40;;;;;;;5.87;5.47;;;18.60;99.90;;;;;;4971681;28;21029;-56
2022/06/06 03:00:08;;;;;;;6.33;5.73;;;18.60;99.90;;;;;;4968502;28;20442;-52
2022/06/06 03:02:35;;;;;;;6.63;5.93;;;18.50;99.90;;;;;;4967336;28;20451;-57
2022/06/06 03:05:04;;;;;;;6.03;5.50;;;18.50;99.90;;;;;;4970537;28;20431;-57
2022/06/06 03:07:58;;;;;;;6.23;5.63;;;18.40;99.90;;;;;;4975901;28;20463;-52
2022/06/06 03:10:54;;;;;;;6.07;5.57;;;18.40;99.90;;;;;;4974713;28;20812;-54
2022/06/06 03:13:47;;;;;;;6.77;6.27;;;18.40;99.90;;;;;;4967575;28;20543;-54
2022/06/06 03:22:22;;;;;;;6.93;6.33;;;18.30;99.90;;;;;;4964450;28;20440;-55
2022/06/06 03:25:06;;;;;;;6.63;6.13;;;18.20;99.90;;;;;;4967649;28;20946;-56
2022/06/06 03:27:53;;;;;;;6.30;5.87;;;18.20;99.90;;;;;;4962131;28;20444;-54
2022/06/06 03:30:29;;;;;;;7.40;6.70;;;18.20;99.90;;;;;;4970623;28;20478;-55
2022/06/06 03:33:03;;;;;;;7.33;6.73;;;18.10;99.90;;;;;;4970341;28;20755;-51
2022/06/06 03:35:52;;;;;;;6.70;6.20;;;18.10;99.90;;;;;;4970751;28;20427;-55
2022/06/06 03:39:01;;;;;;;7.57;6.87;;;18.10;99.90;;;;;;4981942;28;21007;-56
2022/06/06 03:41:27;;;;;;;7.60;6.90;;;18.10;99.90;;;;;;4961456;28;20785;-51
2022/06/06 03:43:55;;;;;;;7.77;7.17;;;18.10;99.90;;;;;;4970144;28;20432;-52
2022/06/06 03:46:53;;;;;;;7.80;7.03;;;18.00;99.90;;;;;;4970945;28;20259;-55
2022/06/06 03:49:48;;;;;;;7.97;7.27;;;18.10;99.90;;;;;;4970923;28;20480;-55
2022/06/06 03:52:40;;;;;;;7.27;6.57;;;18.10;99.90;;;;;;4966921;28;20596;-53
2022/06/06 03:55:21;;;;;;;7.97;7.07;;;18.10;99.90;;;;;;4962554;28;20431;-56
2022/06/06 03:57:48;;;;;;;7.73;7.13;;;18.10;99.90;;;;;;4969719;28;20471;-56
2022/06/06 04:00:14;;;;;;;7.03;6.43;;;18.10;99.90;;;;;;4969553;28;20760;-57
2022/06/06 04:02:43;;;;;;;7.73;7.03;;;18.10;99.90;;;;;;4968150;28;20582;-55
2022/06/06 04:05:16;;;;;;;8.37;7.57;;;18.10;99.90;;;;;;4959464;28;20456;-55
2022/06/06 04:07:43;;;;;;;9.03;8.13;;;18.10;99.90;;;;;;4970711;28;20432;-57
2022/06/06 04:10:09;;;;;;;7.07;6.47;;;18.10;99.90;;;;;;4961555;28;20533;-56
2022/06/06 04:13:09;;;;;;;8.03;7.33;;;18.10;99.90;;;;;;4970711;28;20523;-54
2022/06/06 04:15:49;;;;;;;8.10;7.40;;;18.10;99.90;;;;;;4969645;28;20431;-55
2022/06/06 04:18:26;;;;;;;8.70;8.00;;;18.10;99.90;;;;;;4985568;28;20523;-55
2022/06/06 04:21:19;;;;;;;8.87;8.07;;;18.10;99.90;;;;;;4967873;28;20420;-56
2022/06/06 04:24:06;;;;;;;8.40;7.70;;;18.10;99.90;;;;;;4970416;28;20424;-52
2022/06/06 04:26:53;;;;;;;7.90;6.90;;;18.20;99.90;;;;;;4959399;28;20420;-55
2022/06/06 04:29:31;;;;;;;8.30;7.63;;;18.20;99.90;;;;;;4967702;28;20471;-53
2022/06/06 04:32:29;;;;;;;7.50;6.83;;;18.30;99.90;;;;;;4966116;28;20420;-54
2022/06/06 04:35:28;;;;;;;8.10;7.40;;;18.30;99.90;;;;;;4966495;28;20547;-57
2022/06/06 04:38:00;;;;;;;8.27;7.47;;;18.30;99.90;;;;;;4970288;28;20415;-53
2022/06/06 04:40:53;;;;;;;8.47;7.67;;;18.40;99.90;;;;;;4966719;28;20523;-52
2022/06/06 04:43:25;;;;;;;7.20;6.60;;;18.40;99.90;;;;;;4960005;28;20444;-53
2022/06/06 04:45:54;;;;;;;7.23;6.73;;;18.40;99.90;;;;;;4966543;28;20451;-57
2022/06/06 04:48:21;;;;;;;7.90;7.10;;;18.40;99.90;;;;;;4970340;28;20431;-56
2022/06/06 04:50:47;;;;;;;7.30;6.70;;;18.50;99.90;;;;;;4972048;28;20471;-55
2022/06/06 04:53:21;;;;;;;8.00;7.30;;;18.50;99.90;;;;;;4974053;28;20428;-52
2022/06/06 04:55:49;;;;;;;7.07;6.47;;;18.50;99.90;;;;;;4964801;28;20425;-55
2022/06/06 04:58:17;;;;;;;7.60;6.90;;;18.60;99.90;;;;;;4988872;28;20443;-56
2022/06/06 05:00:43;;;;;;;7.20;6.50;;;18.60;99.90;;;;;;4970518;28;20499;-55
2022/06/06 05:03:09;;;;;;;7.20;6.60;;;18.70;99.90;;;;;;4973906;28;20420;-53
2022/06/06 05:06:10;;;;;;;6.87;6.30;;;18.80;99.90;;;;;;4972700;28;20495;-54
2022/06/06 05:09:01;;;;;;;7.80;7.20;;;18.80;99.90;;;;;;4973847;28;20458;-57
2022/06/06 05:11:57;;;;;;;7.40;6.80;;;18.70;99.90;;;;;;4972058;28;20444;-56
2022/06/06 05:14:42;;;;;;;7.20;6.60;;;18.80;99.90;;;;;;4973391;28;20431;-56
2022/06/06 05:17:25;;;;;;;8.27;7.57;;;18.80;99.90;;;;;;4974485;28;20444;-56
2022/06/06 05:20:26;;;;;;;8.17;7.47;;;18.80;99.90;;;;;;4973582;28;20434;-55
2022/06/06 05:23:06;;;;;;;8.40;7.60;;;18.80;99.90;;;;;;4961556;28;20836;-55
2022/06/06 05:26:02;;;;;;;7.90;7.23;;;18.80;99.90;;;;;;4972852;28;20424;-56
2022/06/06 05:28:35;;;;;;;7.50;6.90;;;18.70;99.90;;;;;;4973546;28;20902;-57
2022/06/06 05:31:19;;;;;;;7.47;6.80;;;18.70;99.90;;;;;;4969535;28;20468;-55
2022/06/06 05:33:54;;;;;;;7.30;6.70;;;18.50;99.90;;;;;;4973129;28;20915;-55
2022/06/06 05:36:46;;;;;;;7.90;7.30;;;18.50;99.90;;;;;;4987517;28;20538;-55
2022/06/06 05:39:47;;;;;;;8.30;7.60;;;18.40;99.90;;;;;;4973796;28;20434;-57
2022/06/06 05:42:52;;;;;;;7.30;6.60;;;18.50;99.90;;;;;;4973101;28;20795;-55
2022/06/06 05:45:56;;;;;;;8.53;7.83;;;18.50;99.90;;;;;;4971389;28;20534;-56
2022/06/06 05:48:30;;;;;;;9.47;8.67;;;18.50;99.90;;;;;;4973893;28;20789;-57
2022/06/06 05:51:02;;;;;;;8.60;7.90;;;18.50;99.90;;;;;;4972561;28;20530;-53
2022/06/06 05:53:59;;;;;;;8.10;7.50;;;18.60;99.90;;;;;;4973172;28;20892;-58
2022/06/06 05:56:25;;;;;;;9.27;8.47;;;18.60;99.90;;;;;;4971702;28;21039;-56
2022/06/06 05:59:21;;;;;;;8.40;7.70;;;18.60;99.90;;;;;;4972814;28;20529;-57
2022/06/06 06:02:01;;;;;;;8.07;7.40;;;18.70;99.90;;;;;;4956277;28;20719;-56
2022/06/06 06:05:09;;;;;;;7.63;7.03;;;18.80;99.90;;;;;;4953780;28;21191;-58
2022/06/06 06:07:53;;;;;;;6.47;5.97;;;18.90;99.90;;;;;;4979124;28;20456;-57
2022/06/06 06:10:38;;;;;;;6.53;6.03;;;19.10;99.90;;;;;;4983125;28;20477;-57
2022/06/06 06:13:32;;;;;;;6.40;5.90;;;19.10;99.90;;;;;;4967918;28;20420;-55
2022/06/06 06:16:02;;;;;;;6.40;5.90;;;19.30;99.90;;;;;;4969862;28;20432;-55
2022/06/06 06:18:46;;;;;;;6.70;6.03;;;19.40;99.90;;;;;;4953682;28;20488;-52
2022/06/06 06:21:20;;;;;;;6.00;5.60;;;19.50;99.90;;;;;;4952967;28;21207;-55
2022/06/06 06:24:02;;;;;;;6.07;5.47;;;19.60;99.90;;;;;;4953092;28;20417;-55
2022/06/06 06:26:30;;;;;;;5.30;4.90;;;19.80;99.90;;;;;;4967367;28;20441;-56
2022/06/06 06:29:00;;;;;;;5.20;4.70;;;19.90;95.70;;;;;;4972029;28;20767;-57
2022/06/06 06:31:52;;;;;;;4.50;4.20;;;20.10;93.50;;;;;;4969339;28;20440;-57
2022/06/06 06:34:29;;;;;;;4.40;4.10;;;20.40;10.80;;;;;;4961051;28;20460;-55
2022/06/06 06:37:14;;;;;;;4.53;4.23;;;20.50;18.70;;;;;;4968055;28;20918;-57
2022/06/06 06:40:20;;;;;;;4.57;4.27;;;20.70;3.10;;;;;;4957115;28;20432;-56
2022/06/06 06:43:08;;;;;;;4.10;3.80;;;20.80;1.00;;;;;;4968686;28;20550;-57
2022/06/06 06:45:42;;;;;;;3.90;3.60;;;21.00;1.00;;;;;;4955823;28;20823;-53
2022/06/06 06:48:19;;;;;;;4.03;3.73;;;21.10;1.00;;;;;;4952835;28;20425;-58
2022/06/06 06:51:02;;;;;;;3.57;3.27;;;21.10;1.00;;;;;;4952654;28;20473;-55
2022/06/06 06:53:43;;;;;;;3.60;3.40;;;21.10;1.00;;;;;;4951432;28;20494;-53
2022/06/06 06:56:19;;;;;;;3.63;3.37;;;21.10;1.00;;;;;;4951126;28;20469;-58
2022/06/06 06:58:59;;;;;;;3.70;3.50;;;21.00;1.00;;;;;;4951020;28;20497;-56
2022/06/06 07:01:38;;;;;;;4.07;3.67;;;21.20;1.00;;;;;;4951085;28;20419;-51
2022/06/06 07:11:05;;;;;;;4.60;4.30;;;21.70;99.90;;;;;;4952194;28;20469;-52
2022/06/06 07:14:00;;;;;;;3.40;3.20;;;21.60;99.90;;;;;;4952489;28;20925;-55
2022/06/06 07:16:34;;;;;;;3.87;3.67;;;21.50;99.90;;;;;;4953274;28;20473;-55
2022/06/06 07:19:09;;;;;;;4.30;4.00;;;21.60;1.00;;;;;;4954703;28;20438;-53
2022/06/06 07:21:37;;;;;;;4.13;3.83;;;21.60;99.90;;;;;;4952386;28;20459;-57
2022/06/06 07:24:05;;;;;;;4.10;3.83;;;21.60;99.90;;;;;;4955750;28;20420;-57
2022/06/06 07:26:38;;;;;;;4.10;3.77;;;21.70;99.90;;;;;;4970138;28;20426;-56
2022/06/06 07:29:08;;;;;;;4.20;3.90;;;21.70;99.90;;;;;;4967057;28;20533;-57
2022/06/06 07:31:43;;;;;;;4.40;4.10;;;21.70;99.90;;;;;;4978231;28;20446;-56
2022/06/06 07:34:41;;;;;;;4.20;3.90;;;21.80;99.90;;;;;;4963690;28;21028;-56
2022/06/06 07:37:27;;;;;;;4.10;3.80;;;22.00;50.50;;;;;;4970917;28;20505;-56
2022/06/06 07:40:17;;;;;;;4.03;3.83;;;22.00;99.90;;;;;;4961837;28;21077;-55
2022/06/06 07:42:43;;;;;;;4.17;3.90;;;22.20;1.00;;;;;;4973474;28;20432;-56
2022/06/06 07:45:21;;;;;;;4.27;4.07;;;22.10;1.00;;;;;;4962171;28;20423;-57
2022/06/06 07:48:05;;;;;;;4.73;4.43;;;22.10;99.90;;;;;;4963729;28;20269;-54
2022/06/06 07:50:58;;;;;;;4.30;4.00;;;22.00;99.90;;;;;;4970016;28;20517;-56
2022/06/06 07:53:45;;;;;;;5.10;4.60;;;21.90;1.00;;;;;;4961957;28;20424;-51
2022/06/06 07:56:41;;;;;;;3.97;3.70;;;22.00;1.00;;;;;;4965065;28;20464;-53
2022/06/06 07:59:13;;;;;;;4.60;4.30;;;22.00;1.00;;;;;;4959289;28;20414;-54
2022/06/06 08:02:16;;;;;;;4.30;4.00;;;22.10;99.90;;;;;;4965232;28;20427;-54
2022/06/06 08:05:20;;;;;;;4.53;4.23;;;22.20;1.00;;;;;;4967374;28;20421;-55
2022/06/06 08:07:48;;;;;;;4.57;4.20;;;22.20;1.00;;;;;;4979229;28;20968;-57
2022/06/06 08:10:40;;;;;;;4.73;4.43;;;22.30;99.90;;;;;;4963974;28;20487;-56
2022/06/06 08:13:24;;;;;;;4.00;3.80;;;22.50;1.00;;;;;;4969220;28;20427;-53
2022/06/06 08:16:06;;;;;;;3.90;3.70;;;22.70;1.00;;;;;;4957545;28;21215;-51
2022/06/06 08:18:59;;;;;;;4.80;4.50;;;23.20;99.90;;;;;;4967419;28;20431;-56
2022/06/06 08:21:43;;;;;;;4.50;4.23;;;23.40;99.90;;;;;;4951577;28;20448;-53
2022/06/06 08:24:30;;;;;;;5.00;4.60;;;23.50;43.50;;;;;;4962773;28;20416;-55
2022/06/06 08:26:58;;;;;;;4.23;4.03;;;23.60;1.00;;;;;;4954918;28;20459;-56
2022/06/06 08:29:25;;;;;;;4.77;4.47;;;23.70;1.00;;;;;;4967839;28;20456;-57
2022/06/06 08:31:51;;;;;;;4.73;4.43;;;23.90;1.00;;;;;;4958432;28;20915;-55
2022/06/06 08:34:17;;;;;;;4.93;4.63;;;24.10;6.90;;;;;;4978346;28;20476;-57
2022/06/06 08:36:51;;;;;;;5.27;4.90;;;24.40;1.00;;;;;;4956987;28;20181;-56
2022/06/06 08:39:28;;;;;;;4.83;4.53;;;24.60;1.00;;;;;;4950201;28;20248;-54
2022/06/06 08:42:05;;;;;;;4.43;4.20;;;24.50;1.00;;;;;;4966557;28;20415;-56
2022/06/06 08:44:36;;;;;;;4.50;4.30;;;24.60;99.90;;;;;;4962554;28;20523;-58
2022/06/06 08:47:06;;;;;;;5.00;4.70;;;24.40;99.90;;;;;;4969452;28;20535;-57
2022/06/06 08:53:17;;;;;;;4.50;4.20;;;24.80;1.00;;;;;;4971624;28;20430;-54
2022/06/06 08:56:13;;;;;;;4.80;4.50;;;25.00;99.90;;;;;;4968085;28;20460;-57
2022/06/06 08:59:00;;;;;;;4.63;4.33;;;25.10;99.90;;;;;;4957613;28;20466;-55
2022/06/06 09:01:44;;;;;;;5.17;4.77;;;24.90;99.90;;;;;;4966611;28;20463;-56
2022/06/06 09:04:33;;;;;;;4.90;4.70;;;24.80;1.00;;;;;;4967480;28;20413;-56
2022/06/06 09:07:03;;;;;;;4.57;4.37;;;24.30;73.80;;;;;;4950110;28;20428;-56
2022/06/06 09:09:59;;;;;;;5.13;4.83;;;24.30;99.90;;;;;;4949838;28;20536;-55
2022/06/06 09:12:55;;;;;;;4.90;4.60;;;24.50;99.90;;;;;;4949837;28;21186;-57
2022/06/06 09:15:58;;;;;;;5.07;4.77;;;25.00;99.90;;;;;;4965757;28;20436;-57
2022/06/06 09:18:52;;;;;;;4.43;4.23;;;25.40;93.70;;;;;;4971181;28;20505;-58
2022/06/06 09:22:11;;;;;;;5.07;4.77;;;26.30;1.00;;;;;;4960302;28;20416;-56
2022/06/06 09:25:05;;;;;;;4.73;4.47;;;26.80;1.00;;;;;;5005552;28;20982;-55
2022/06/06 09:27:52;;;;;;;4.70;4.50;;;26.80;99.90;;;;;;5005132;28;20456;-55
2022/06/06 09:30:56;;;;;;;4.80;4.50;;;26.80;1.00;;;;;;5007123;28;21068;-59
2022/06/06 09:33:30;;;;;;;5.30;5.00;;;26.70;1.00;;;;;;5014565;28;20471;-59
2022/06/06 09:36:23;;;;;;;4.70;4.50;;;27.00;1.00;;;;;;5012715;28;20544;-58
2022/06/06 09:39:13;;;;;;;4.83;4.43;;;27.70;99.90;;;;;;5021734;28;20401;-58
2022/06/06 09:42:16;;;;;;;4.97;4.67;;;28.10;99.90;;;;;;5025684;28;20442;-58
2022/06/06 09:45:03;;;;;;;4.73;4.53;;;27.80;99.90;;;;;;5017313;28;20436;-52
2022/06/06 09:47:34;;;;;;;5.03;4.73;;;27.60;99.90;;;;;;5014981;28;20469;-57
2022/06/06 09:50:26;;;;;;;4.40;4.20;;;27.60;99.90;;;;;;5017113;28;20893;-57
2022/06/06 09:53:01;;;;;;;5.20;4.83;;;27.40;99.90;;;;;;5018659;28;20442;-57
2022/06/06 09:59:02;;;;;;;4.73;4.53;;;26.60;99.90;;;;;;4992698;28;20430;-57
2022/06/06 10:01:34;;;;;;;4.67;4.47;;;27.60;99.90;;;;;;4986990;28;20552;-58
2022/06/06 10:04:31;;;;;;;4.83;4.63;;;27.90;99.90;;;;;;4973957;28;20523;-58
2022/06/06 10:07:28;;;;;;;4.77;4.37;;;27.60;99.90;;;;;;4960630;28;20488;-54
2022/06/06 10:10:27;;;;;;;4.87;4.60;;;28.00;99.90;;;;;;4963883;28;20463;-54
2022/06/06 10:13:13;;;;;;;5.13;4.80;;;27.60;99.90;;;;;;4972358;28;20543;-52
2022/06/06 10:16:04;;;;;;;4.70;4.40;;;26.90;99.90;;;;;;4982038;28;20583;-46
2022/06/06 10:18:36;;;;;;;4.97;4.73;;;26.80;99.90;;;;;;4971046;28;20512;-52
2022/06/06 10:21:25;;;;;;;5.10;4.80;;;26.90;99.90;;;;;;4955573;28;20423;-51
2022/06/06 10:24:07;;;;;;;4.83;4.53;;;26.30;99.90;;;;;;4959728;28;20957;-51
2022/06/06 10:26:49;;;;;;;5.30;4.90;;;26.60;99.90;;;;;;4967407;28;20454;-50
2022/06/06 10:29:26;;;;;;;4.70;4.40;;;26.70;99.90;;;;;;4963551;28;20457;-53
2022/06/06 10:31:52;;;;;;;5.47;5.17;;;26.80;99.90;;;;;;4964513;28;20437;-51
2022/06/06 10:34:47;;;;;;;5.47;5.20;;;27.10;99.90;;;;;;4964648;28;21229;-51
2022/06/06 10:37:34;;;;;;;4.80;4.60;;;27.60;99.90;;;;;;4959233;28;20239;-50
2022/06/06 10:40:41;;;;;;;5.27;4.97;;;28.00;99.90;;;;;;4972470;28;20997;-51
2022/06/06 10:43:28;;;;;;;5.00;4.70;;;28.00;99.90;;;;;;4958339;28;20432;-49
2022/06/06 10:45:58;;;;;;;5.20;4.90;;;27.70;99.90;;;;;;4962945;28;20428;-53
2022/06/06 10:48:55;;;;;;;5.67;5.17;;;27.90;99.90;;;;;;4957521;28;20983;-53
2022/06/06 10:51:40;;;;;;;5.07;4.87;;;28.10;99.90;;;;;;4960540;28;21227;-50
2022/06/06 10:54:27;;;;;;;4.80;4.50;;;28.80;99.90;;;;;;4968659;28;20871;-54
2022/06/06 10:57:04;;;;;;;5.33;5.03;;;29.50;99.90;;;;;;4968724;28;20558;-53
2022/06/06 10:59:58;;;;;;;4.73;4.53;;;29.60;99.90;;;;;;4958284;28;20532;-50
2022/06/06 11:03:04;;;;;;;4.77;4.47;;;29.50;99.90;;;;;;4967946;28;20794;-49
2022/06/06 11:05:56;;;;;;;4.90;4.50;;;29.10;99.90;;;;;;4975522;28;20444;-52
2022/06/06 11:08:46;;;;;;;4.93;4.73;;;29.00;99.90;;;;;;4968957;28;20448;-52
2022/06/06 11:11:43;;;;;;;5.30;5.00;;;28.60;99.90;;;;;;4968996;28;20786;-55
2022/06/06 11:14:17;;;;;;;4.80;4.50;;;28.10;99.90;;;;;;4985454;28;20444;-53
2022/06/06 11:16:57;;;;;;;5.03;4.73;;;28.80;99.90;;;;;;4968650;28;20464;-53
2022/06/06 11:19:44;;;;;;;4.80;4.50;;;29.30;99.90;;;;;;4965367;28;20459;-51
2022/06/06 11:22:27;;;;;;;4.43;4.13;;;29.30;99.90;;;;;;4958004;28;20474;-51
2022/06/06 11:25:04;;;;;;;5.40;5.10;;;29.30;99.90;;;;;;4967117;28;20438;-55
2022/06/06 11:27:36;;;;;;;4.93;4.63;;;29.00;99.90;;;;;;4973750;28;20448;-51
2022/06/06 11:30:26;;;;;;;5.43;5.13;;;29.40;99.90;;;;;;4952483;28;20960;-55
2022/06/06 11:33:07;;;;;;;4.70;4.50;;;29.40;99.90;;;;;;4968206;28;20498;-54
2022/06/06 11:35:49;;;;;;;5.00;4.70;;;29.70;99.90;;;;;;4969067;28;20494;-52
2022/06/06 11:38:23;;;;;;;5.90;5.50;;;30.00;99.90;;;;;;4968122;28;20810;-54
2022/06/06 11:41:04;;;;;;;5.20;4.93;;;30.20;99.90;;;;;;4955250;28;20425;-52
2022/06/06 11:44:06;;;;;;;5.33;5.03;;;29.80;99.90;;;;;;4952472;28;20833;-53
2022/06/06 11:46:46;;;;;;;5.17;4.87;;;28.50;99.90;;;;;;4953546;28;20963;-53
2022/06/06 11:49:27;;;;;;;5.20;4.90;;;28.40;99.90;;;;;;4956414;28;20532;-50
2022/06/06 11:52:10;;;;;;;5.50;5.20;;;28.40;99.90;;;;;;4949973;28;20771;-52
2022/06/06 11:55:17;;;;;;;5.20;5.00;;;28.60;99.90;;;;;;4955590;28;20440;-53
2022/06/06 11:57:59;;;;;;;5.20;5.00;;;28.50;99.90;;;;;;4954047;28;21005;-53
2022/06/06 12:00:40;;;;;;;5.70;5.40;;;28.30;99.90;;;;;;4964628;28;20441;-52
2022/06/06 12:03:34;;;;;;;5.30;5.00;;;28.20;99.90;;;;;;4972979;28;20447;-52
2022/06/06 12:06:14;;;;;;;6.00;5.60;;;28.50;99.90;;;;;;4968372;28;20440;-52
2022/06/06 12:08:51;;;;;;;5.67;5.37;;;28.80;99.90;;;;;;4968298;28;20480;-49
2022/06/06 12:11:47;;;;;;;5.70;5.37;;;28.80;99.90;;;;;;4963982;28;20437;-53
2022/06/06 12:14:44;;;;;;;5.20;5.00;;;28.90;99.90;;;;;;4964341;28;20490;-54
2022/06/06 12:17:28;;;;;;;5.57;5.27;;;29.00;99.90;;;;;;4974802;28;20907;-53
2022/06/06 12:20:21;;;;;;;5.27;4.87;;;28.90;99.90;;;;;;4965130;28;20994;-56
2022/06/06 12:23:00;;;;;;;5.37;4.97;;;28.40;99.90;;;;;;4968712;28;20534;-54
2022/06/06 12:25:56;;;;;;;5.57;5.27;;;28.30;99.90;;;;;;4967371;28;20439;-53
2022/06/06 12:28:47;;;;;;;5.53;5.23;;;28.10;99.90;;;;;;4967619;28;20526;-54
2022/06/06 12:31:26;;;;;;;5.23;4.83;;;28.00;99.90;;;;;;4969345;28;20514;-52
2022/06/06 12:34:15;;;;;;;5.60;5.20;;;28.00;99.90;;;;;;4963899;28;20444;-50
2022/06/06 12:36:43;;;;;;;5.80;5.50;;;28.30;99.90;;;;;;4969510;28;20437;-54
2022/06/06 12:39:30;;;;;;;5.07;4.77;;;28.50;99.90;;;;;;4983347;28;20981;-53
2022/06/06 12:42:07;;;;;;;5.70;5.40;;;28.60;99.90;;;;;;4968162;28;20443;-53
2022/06/06 12:44:39;;;;;;;5.37;5.07;;;29.10;99.90;;;;;;4961140;28;20462;-54
2022/06/06 12:47:30;;;;;;;5.53;5.27;;;29.50;99.90;;;;;;4968987;28;20522;-52
2022/06/06 12:50:25;;;;;;;5.97;5.57;;;29.90;99.90;;;;;;4962890;28;20820;-53
2022/06/06 12:53:25;;;;;;;5.10;4.90;;;30.10;99.90;;;;;;4982777;28;20438;-52
2022/06/06 12:56:23;;;;;;;5.33;5.10;;;30.30;99.90;;;;;;4969370;28;20926;-53
2022/06/06 12:59:26;;;;;;;5.23;5.03;;;30.80;99.90;;;;;;4964586;28;20459;-51
2022/06/06 13:02:32;;;;;;;4.90;4.60;;;31.60;99.90;;;;;;4969192;28;20424;-52
2022/06/06 13:05:20;;;;;;;5.67;5.37;;;32.10;99.90;;;;;;4969760;28;20452;-50
2022/06/06 13:08:20;;;;;;;5.70;5.40;;;32.10;99.90;;;;;;4971410;28;20486;-50
2022/06/06 13:11:13;;;;;;;5.30;5.10;;;31.90;99.90;;;;;;4966612;28;21186;-58
2022/06/06 13:13:42;;;;;;;6.00;5.70;;;31.40;99.90;;;;;;4965451;28;20445;-59
2022/06/06 13:16:27;;;;;;;5.07;4.77;;;31.00;99.90;;;;;;4973398;28;20447;-58
2022/06/06 13:19:02;;;;;;;5.93;5.63;;;31.20;99.90;;;;;;4972088;28;20474;-58
2022/06/06 13:21:55;;;;;;;5.50;5.20;;;31.60;99.90;;;;;;4972803;28;20423;-58
2022/06/06 13:24:46;;;;;;;5.30;4.90;;;32.10;99.90;;;;;;4970414;28;20440;-58
2022/06/06 13:27:59;;;;;;;5.87;5.50;;;32.80;99.90;;;;;;4970364;28;20788;-59
2022/06/06 13:30:48;;;;;;;5.47;5.17;;;33.30;99.90;;;;;;4961463;28;20455;-59
2022/06/06 13:33:38;;;;;;;5.20;4.90;;;33.20;99.90;;;;;;4963099;28;20436;-59
2022/06/06 13:36:26;;;;;;;5.60;5.30;;;33.20;99.90;;;;;;4969868;28;20428;-59
2022/06/06 13:39:25;;;;;;;5.50;5.20;;;33.10;99.90;;;;;;4970688;28;20506;-59
2022/06/06 13:42:35;;;;;;;6.00;5.60;;;33.70;99.90;;;;;;4962583;28;20512;-59
2022/06/06 13:45:45;;;;;;;5.63;5.33;;;34.30;99.90;;;;;;4971927;28;20991;-59
2022/06/06 13:48:49;;;;;;;5.77;5.50;;;35.40;99.90;;;;;;4971048;28;20440;-59
2022/06/06 13:51:41;;;;;;;5.53;5.20;;;36.40;99.90;;;;;;4962818;28;21021;-57
2022/06/06 13:54:26;;;;;;;5.70;5.40;;;36.50;99.90;;;;;;4964800;28;20444;-58
2022/06/06 13:57:21;;;;;;;5.43;5.23;;;36.60;99.90;;;;;;4967845;28;20492;-58
2022/06/06 14:00:15;;;;;;;5.23;5.00;;;36.50;99.90;;;;;;4968887;28;20455;-58
2022/06/06 14:03:11;;;;;;;6.13;5.83;;;37.60;99.90;;;;;;4963497;28;22399;-59
2022/06/06 14:06:09;;;;;;;5.60;5.30;;;37.60;99.90;;;;;;4954097;28;20974;-58
2022/06/06 14:08:50;;;;;;;5.13;4.93;;;37.60;99.90;;;;;;4957433;28;20429;-58
2022/06/06 14:11:23;;;;;;;5.60;5.40;;;37.90;99.90;;;;;;4967657;28;20547;-58
2022/06/06 14:14:00;;;;;;;5.80;5.50;;;37.50;99.90;;;;;;4967990;28;20444;-58
2022/06/06 14:16:49;;;;;;;5.00;4.80;;;37.00;99.90;;;;;;4962905;28;20449;-58
2022/06/06 14:19:17;;;;;;;6.00;5.60;;;36.70;99.90;;;;;;4966010;28;20447;-58
2022/06/06 14:21:53;;;;;;;5.30;5.10;;;36.20;99.90;;;;;;4965442;28;20439;-54
2022/06/06 14:24:22;;;;;;;6.30;5.87;;;35.50;99.90;;;;;;4967173;28;20426;-54